Погода Иньюмасна 2 недели

Гояс, Бразилия

24 апреля-06 мая
  • 24апреля
    Сегодня
    +21°
    +31°
    Облачно с прояснениями
    ВремяПогодаТемператураВлажностьДавлениеВетер, м/сВероятность осадков
    00:00Практически безоблачно+22°C76 %690 мм1.7 м/с5 %
    03:00Ясно и безоблачно+21°C82 %689 мм1.9 м/с5 %
    06:00Ясно и безоблачно+20°C87 %689 мм1.7 м/с5 %
    09:00Ясно и безоблачно+25°C67 %691 мм1.3 м/с5 %
    12:00Практически безоблачно+29°C48 %691 мм1.1 м/с5 %
    15:00Облачно с прояснениями+31°C44 %689 мм1.2 м/с3 %
    18:00Облачно с прояснениями+27°C62 %688 мм2.1 м/с5 %
    21:00Небольшая облачность+25°C65 %689 мм1.9 м/с5 %
  • 25апреля
    Четверг
    +20°
    +32°
    Ясно и безоблачно
    ВремяПогодаТемператураВлажностьДавлениеВетер, м/сВероятность осадков
    00:00Практически безоблачно+23°C78 %689 мм1.7 м/с5 %
    03:00Ясно и безоблачно+22°C80 %688 мм1.6 м/с5 %
    06:00Ясно и безоблачно+21°C80 %688 мм1.8 м/с5 %
    09:00Ясно и безоблачно+26°C63 %691 мм1.2 м/с5 %
    12:00Ясно и безоблачно+30°C44 %690 мм2.3 м/с5 %
    15:00Ясно и безоблачно+32°C40 %689 мм1.5 м/с5 %
    18:00Ясно и безоблачно+28°C52 %688 мм1.8 м/с5 %
    21:00Практически безоблачно+25°C62 %688 мм1.8 м/с5 %
  • 26апреля
    Пятница
    +23°
    +32°
    Практически безоблачно
    ВремяПогодаТемператураВлажностьДавлениеВетер, м/сВероятность осадков
    00:00Небольшая облачность+24°C62 %689 мм1.9 м/с5 %
    03:00Ясно и безоблачно+24°C64 %688 мм2.7 м/с5 %
    06:00Ясно и безоблачно+21°C82 %688 мм1.5 м/с5 %
    09:00Ясно и безоблачно+26°C60 %691 мм1.6 м/с5 %
    12:00Ясно и безоблачно+31°C44 %690 мм2.8 м/с10 %
    15:00Практически безоблачно+32°C41 %689 мм1.8 м/с22 %
    18:00Небольшая облачность+29°C55 %688 мм1.7 м/с31 %
    21:00Ясно и безоблачно+26°C58 %689 мм2.4 м/с14 %
  • 27апреля
    Суббота
    +20°
    +33°
    Практически безоблачно
    ВремяПогодаТемператураВлажностьДавлениеВетер, м/сВероятность осадков
    00:00Ясно и безоблачно+25°C62 %689 мм2.6 м/с6 %
    03:00Ясно и безоблачно+24°C65 %688 мм2.6 м/с5 %
    06:00Ясно и безоблачно+24°C64 %689 мм2.7 м/с5 %
    09:00Ясно и безоблачно+26°C57 %691 мм3.4 м/с5 %
    12:00Ясно и безоблачно+30°C43 %691 мм3.3 м/с3 %
    15:00Практически безоблачно+32°C38 %689 мм1.1 м/с10 %
    18:00Практически безоблачно+30°C50 %688 мм0.4 м/с12 %
    21:00Ясно и безоблачно+26°C59 %689 мм2.0 м/с4 %
Мы используем cookies
Соглашаюсь